sensor_id;sensor_type;location;lat;lon;timestamp;P1;durP1;ratioP1;P2;durP2;ratioP2
13520;SDS011;6832;51.186;3.236;2022-12-05T09:39:31;27.47;;;14.80;;
13520;SDS011;6832;51.186;3.236;2022-12-05T09:45:24;28.03;;;14.80;;
13520;SDS011;6832;51.186;3.236;2022-12-05T09:49:32;25.87;;;13.40;;
13520;SDS011;6832;51.186;3.236;2022-12-05T09:58:58;24.37;;;11.93;;
13520;SDS011;6832;51.186;3.236;2022-12-05T10:02:05;25.97;;;13.80;;
13520;SDS011;6832;51.186;3.236;2022-12-05T10:35:37;33.47;;;15.43;;
13520;SDS011;6832;51.186;3.236;2022-12-05T10:38:46;22.90;;;13.43;;
13520;SDS011;6832;51.186;3.236;2022-12-05T10:41:21;26.57;;;14.03;;
13520;SDS011;6832;51.186;3.236;2022-12-05T10:43:52;23.03;;;12.57;;
13520;SDS011;6832;51.186;3.236;2022-12-05T10:46:21;19.73;;;11.93;;
13520;SDS011;6832;51.186;3.236;2022-12-05T10:48:57;21.03;;;12.80;;
13520;SDS011;6832;51.186;3.236;2022-12-05T10:51:28;30.60;;;14.93;;
13520;SDS011;6832;51.186;3.236;2022-12-05T10:56:53;24.47;;;11.83;;
13520;SDS011;6832;51.186;3.236;2022-12-05T10:59:23;22.20;;;12.10;;
13520;SDS011;6832;51.186;3.236;2022-12-05T11:19:13;24.47;;;13.23;;
13520;SDS011;6832;51.186;3.236;2022-12-05T11:31:32;17.83;;;11.43;;
13520;SDS011;6832;51.186;3.236;2022-12-05T11:34:13;19.37;;;10.43;;
13520;SDS011;6832;51.186;3.236;2022-12-05T11:36:59;17.00;;;10.83;;
13520;SDS011;6832;51.186;3.236;2022-12-05T11:39:33;17.60;;;11.13;;
13520;SDS011;6832;51.186;3.236;2022-12-05T11:45:16;16.90;;;9.70;;
13520;SDS011;6832;51.186;3.236;2022-12-05T11:48:27;15.97;;;10.70;;
13520;SDS011;6832;51.186;3.236;2022-12-05T11:51:17;17.50;;;11.07;;
13520;SDS011;6832;51.186;3.236;2022-12-05T11:54:11;15.67;;;10.37;;
13520;SDS011;6832;51.186;3.236;2022-12-05T12:00:00;16.47;;;11.53;;
13520;SDS011;6832;51.186;3.236;2022-12-05T12:05:54;14.63;;;10.03;;
13520;SDS011;6832;51.186;3.236;2022-12-05T12:11:30;16.83;;;11.17;;
13520;SDS011;6832;51.186;3.236;2022-12-05T12:14:18;19.63;;;11.57;;
13520;SDS011;6832;51.186;3.236;2022-12-05T12:17:28;18.03;;;11.37;;
13520;SDS011;6832;51.186;3.236;2022-12-05T12:20:18;19.53;;;12.17;;
13520;SDS011;6832;51.186;3.236;2022-12-05T12:23:17;16.90;;;11.33;;
13520;SDS011;6832;51.186;3.236;2022-12-05T12:26:21;16.60;;;10.57;;
13520;SDS011;6832;51.186;3.236;2022-12-05T12:29:13;17.57;;;11.20;;
13520;SDS011;6832;51.186;3.236;2022-12-05T12:32:16;13.90;;;10.47;;
13520;SDS011;6832;51.186;3.236;2022-12-05T12:42:00;19.90;;;10.23;;
13520;SDS011;6832;51.186;3.236;2022-12-05T12:48:12;18.60;;;10.87;;
13520;SDS011;6832;51.186;3.236;2022-12-05T12:51:45;21.07;;;11.07;;
13520;SDS011;6832;51.186;3.236;2022-12-05T13:00:48;17.60;;;10.37;;
13520;SDS011;6832;51.186;3.236;2022-12-05T13:06:22;20.13;;;11.33;;
13520;SDS011;6832;51.186;3.236;2022-12-05T13:09:42;20.50;;;11.70;;
13520;SDS011;6832;51.186;3.236;2022-12-05T13:12:31;17.57;;;11.30;;
13520;SDS011;6832;51.186;3.236;2022-12-05T13:18:36;17.07;;;11.13;;
13520;SDS011;6832;51.186;3.236;2022-12-05T13:21:04;20.33;;;11.93;;
13520;SDS011;6832;51.186;3.236;2022-12-05T13:23:46;21.90;;;12.23;;
13520;SDS011;6832;51.186;3.236;2022-12-05T13:26:17;18.60;;;11.63;;
13520;SDS011;6832;51.186;3.236;2022-12-05T13:28:52;18.50;;;11.83;;
13520;SDS011;6832;51.186;3.236;2022-12-05T13:31:37;21.33;;;13.00;;
13520;SDS011;6832;51.186;3.236;2022-12-05T13:40:20;21.47;;;12.67;;
13520;SDS011;6832;51.186;3.236;2022-12-05T13:43:10;22.83;;;12.93;;
13520;SDS011;6832;51.186;3.236;2022-12-05T13:45:51;29.80;;;15.30;;
13520;SDS011;6832;51.186;3.236;2022-12-05T13:48:40;21.90;;;13.53;;
13520;SDS011;6832;51.186;3.236;2022-12-05T13:51:19;19.80;;;12.57;;
13520;SDS011;6832;51.186;3.236;2022-12-05T13:53:57;24.10;;;14.17;;
13520;SDS011;6832;51.186;3.236;2022-12-05T13:56:52;25.50;;;15.30;;
13520;SDS011;6832;51.186;3.236;2022-12-05T14:05:57;21.10;;;12.00;;
13520;SDS011;6832;51.186;3.236;2022-12-05T14:09:25;17.73;;;11.53;;
13520;SDS011;6832;51.186;3.236;2022-12-05T14:15:27;22.57;;;11.80;;
13520;SDS011;6832;51.186;3.236;2022-12-05T14:28:25;14.57;;;9.90;;
13520;SDS011;6832;51.186;3.236;2022-12-05T14:31:46;15.47;;;9.50;;
13520;SDS011;6832;51.186;3.236;2022-12-05T14:35:18;17.30;;;9.20;;
13520;SDS011;6832;51.186;3.236;2022-12-05T14:38:33;16.00;;;9.13;;
13520;SDS011;6832;51.186;3.236;2022-12-05T14:41:31;10.37;;;8.10;;
13520;SDS011;6832;51.186;3.236;2022-12-05T14:51:53;19.03;;;10.50;;
13520;SDS011;6832;51.186;3.236;2022-12-05T14:58:22;16.80;;;9.87;;
13520;SDS011;6832;51.186;3.236;2022-12-05T15:01:39;12.87;;;7.47;;
13520;SDS011;6832;51.186;3.236;2022-12-05T15:04:57;14.47;;;8.33;;
13520;SDS011;6832;51.186;3.236;2022-12-05T15:11:17;12.33;;;8.43;;
13520;SDS011;6832;51.186;3.236;2022-12-05T15:14:02;12.03;;;8.17;;
13520;SDS011;6832;51.186;3.236;2022-12-05T15:16:41;14.13;;;8.53;;
13520;SDS011;6832;51.186;3.236;2022-12-05T15:19:31;17.20;;;9.27;;
13520;SDS011;6832;51.186;3.236;2022-12-05T15:22:22;13.17;;;8.63;;
13520;SDS011;6832;51.186;3.236;2022-12-05T15:28:25;10.33;;;7.87;;
13520;SDS011;6832;51.186;3.236;2022-12-05T15:30:54;15.37;;;9.30;;
13520;SDS011;6832;51.186;3.236;2022-12-05T15:36:22;13.83;;;8.50;;
13520;SDS011;6832;51.186;3.236;2022-12-05T15:41:59;16.57;;;10.57;;
13520;SDS011;6832;51.186;3.236;2022-12-05T15:44:42;13.30;;;8.70;;
13520;SDS011;6832;51.186;3.236;2022-12-05T15:47:39;11.70;;;8.53;;
13520;SDS011;6832;51.186;3.236;2022-12-05T15:53:45;24.90;;;11.90;;
13520;SDS011;6832;51.186;3.236;2022-12-05T15:58:58;13.97;;;10.53;;
13520;SDS011;6832;51.186;3.236;2022-12-05T16:03:23;13.67;;;10.53;;
13520;SDS011;6832;51.186;3.236;2022-12-05T16:06:38;15.83;;;10.73;;
13520;SDS011;6832;51.186;3.236;2022-12-05T16:09:43;15.83;;;9.93;;
13520;SDS011;6832;51.186;3.236;2022-12-05T16:12:26;15.50;;;9.73;;
13520;SDS011;6832;51.186;3.236;2022-12-05T16:38:03;14.37;;;9.30;;
13520;SDS011;6832;51.186;3.236;2022-12-05T16:40:57;12.17;;;8.40;;
13520;SDS011;6832;51.186;3.236;2022-12-05T16:43:40;10.63;;;8.30;;
13520;SDS011;6832;51.186;3.236;2022-12-05T16:46:40;10.77;;;8.43;;
13520;SDS011;6832;51.186;3.236;2022-12-05T16:49:32;13.77;;;8.33;;
13520;SDS011;6832;51.186;3.236;2022-12-05T16:52:17;14.90;;;9.07;;
13520;SDS011;6832;51.186;3.236;2022-12-05T16:57:57;17.83;;;8.80;;
13520;SDS011;6832;51.186;3.236;2022-12-05T17:00:30;15.30;;;8.57;;
13520;SDS011;6832;51.186;3.236;2022-12-05T17:03:10;12.57;;;7.43;;
13520;SDS011;6832;51.186;3.236;2022-12-05T17:06:02;12.80;;;7.77;;
13520;SDS011;6832;51.186;3.236;2022-12-05T17:08:44;12.03;;;7.90;;
13520;SDS011;6832;51.186;3.236;2022-12-05T17:11:17;14.70;;;8.20;;
13520;SDS011;6832;51.186;3.236;2022-12-05T17:14:07;13.30;;;8.50;;
13520;SDS011;6832;51.186;3.236;2022-12-05T17:16:39;16.87;;;10.23;;
13520;SDS011;6832;51.186;3.236;2022-12-05T17:19:32;17.30;;;11.57;;
13520;SDS011;6832;51.186;3.236;2022-12-05T17:22:03;18.87;;;12.47;;
13520;SDS011;6832;51.186;3.236;2022-12-05T17:24:55;14.83;;;10.33;;
13520;SDS011;6832;51.186;3.236;2022-12-05T17:27:26;19.77;;;13.07;;
13520;SDS011;6832;51.186;3.236;2022-12-05T17:30:08;18.57;;;13.93;;
13520;SDS011;6832;51.186;3.236;2022-12-05T17:32:44;23.77;;;16.27;;
13520;SDS011;6832;51.186;3.236;2022-12-05T17:35:18;23.47;;;15.10;;
13520;SDS011;6832;51.186;3.236;2022-12-05T17:41:05;19.20;;;10.87;;
13520;SDS011;6832;51.186;3.236;2022-12-05T17:43:52;13.43;;;9.63;;
13520;SDS011;6832;51.186;3.236;2022-12-05T17:56:11;15.20;;;10.80;;
13520;SDS011;6832;51.186;3.236;2022-12-05T17:59:11;15.10;;;10.50;;
13520;SDS011;6832;51.186;3.236;2022-12-05T18:02:05;13.13;;;9.10;;
13520;SDS011;6832;51.186;3.236;2022-12-05T18:05:08;15.07;;;9.93;;
13520;SDS011;6832;51.186;3.236;2022-12-05T18:11:14;15.87;;;9.23;;
13520;SDS011;6832;51.186;3.236;2022-12-05T21:29:55;20.53;;;10.30;;
13520;SDS011;6832;51.186;3.236;2022-12-05T21:32:55;16.00;;;9.37;;
13520;SDS011;6832;51.186;3.236;2022-12-05T21:35:57;17.87;;;8.83;;
